• pl
  • eng

Awiacja
Kliknij na pogrubioną czerwoną nazwę, aby odkodować depeszę. 12:01 20.06.2019
  • WIND
  • SIGNIFICANT EURO
  • SIGNIFICANT
  • SIGMET
  • AIRMET
  • TAF FC
  • TAF FT
  • METAR GG30
  • METAR GG00


METAR EPBY 201000Z 17011KT 130V200 9999 FEW057CB 31/16 Q1008 =

METAR EPGD 201000Z 14009KT 100V180 CAVOK 27/20 Q1009 =

METAR EPKK 201000Z 21003KT 170V250 9999 FEW026 24/18 Q1012 =

METAR EPKT 201000Z 20009KT 160V230 9999 FEW045 27/15 Q1012 =

METAR EPLB 201000Z 21009KT 180V240 9999 SCT029 28/19 Q1012 =

METAR EPLL 201000Z 20006KT 140V240 9999 FEW040 29/17 Q1011 =

METAR EPMO 201000Z 18008KT CAVOK 26/19 Q1011 =

METAR EPPO 201000Z 23009KT 9999 FEW053CB 31/13 Q1009 =

METAR EPRA 201000Z NIL=

METAR EPRZ 201000Z 22011KT 9999 FEW040 25/17 Q1013 =

METAR EPSC 201000Z 21004KT 160V260 9999 FEW008 SCT050CB 22/16 Q1010 =

METAR EPSY 201000Z 17005KT 120V270 CAVOK 26/19 Q1011=

METAR EPWA 201000Z 23004KT 190V260 9999 -RA NSC 24/20 Q1011 NOSIG=

METAR EPWR 201000Z 21006KT 170V270 CAVOK 29/13 Q1011 =

METAR EPZG 201000Z VRB07KT CAVOK 29/12 Q1009 =
Awiacja.imgw.pl jest pogodowym serwisem informacyjnym
Instytutu Meteorologii i Gospodarki Wodnej Państwowego Instytutu Badawczego.
Copyright IMGW PIB 2009-2011© Wszelkie prawa zastrzeżone.